createdAt,value
2024-03-27T00:02:32.521Z,40.95
2024-03-27T00:05:03.766Z,41.09
2024-03-27T00:07:35.526Z,41.10
2024-03-27T00:10:06.936Z,41.05
2024-03-27T00:12:38.527Z,41.08
2024-03-27T00:15:09.466Z,41.18
2024-03-27T00:17:41.012Z,41.00
2024-03-27T00:20:11.870Z,41.12
2024-03-27T00:22:43.304Z,41.18
2024-03-27T00:25:14.348Z,40.85
2024-03-27T00:27:45.789Z,40.81
2024-03-27T00:30:16.293Z,40.92
2024-03-27T00:32:47.792Z,41.14
2024-03-27T00:35:18.500Z,41.26
2024-03-27T00:37:50.017Z,41.35
2024-03-27T00:40:21.515Z,41.42
2024-03-27T00:42:53.264Z,41.33
2024-03-27T00:45:23.486Z,41.15
2024-03-27T00:47:55.349Z,40.91
2024-03-27T00:50:26.106Z,40.88
2024-03-27T00:52:58.559Z,40.97
2024-03-27T00:55:28.994Z,41.13
2024-03-27T00:58:00.776Z,41.35
2024-03-27T01:00:31.178Z,41.16
2024-03-27T01:03:02.721Z,41.22
2024-03-27T01:05:33.655Z,41.13
2024-03-27T01:08:05.623Z,41.11
2024-03-27T01:10:37.172Z,41.01
2024-03-27T01:13:08.999Z,41.04
2024-03-27T01:15:39.469Z,40.91
2024-03-27T01:18:11.341Z,41.02
2024-03-27T01:20:42.986Z,41.01
2024-03-27T01:23:14.703Z,41.09
2024-03-27T01:25:45.365Z,41.36
2024-03-27T01:28:17.130Z,41.56
2024-03-27T01:30:47.758Z,42.01
2024-03-27T01:33:21.045Z,42.35
2024-03-27T01:35:52.306Z,42.65
2024-03-27T01:38:24.052Z,43.00
2024-03-27T01:40:54.785Z,43.45
2024-03-27T01:43:26.445Z,43.87
2024-03-27T01:45:57.084Z,44.21
2024-03-27T01:48:29.032Z,44.43
2024-03-27T01:50:59.358Z,44.64
2024-03-27T01:53:31.115Z,44.99
2024-03-27T01:56:01.438Z,45.41
2024-03-27T01:58:33.307Z,45.93
2024-03-27T02:01:03.833Z,46.51
2024-03-27T02:03:36.092Z,47.11
2024-03-27T02:06:07.652Z,47.66
2024-03-27T02:08:39.197Z,48.05
2024-03-27T02:11:09.632Z,48.28
2024-03-27T02:13:41.486Z,48.46
2024-03-27T02:16:12.228Z,48.65
2024-03-27T02:18:44.077Z,48.85
2024-03-27T02:21:14.298Z,48.85
2024-03-27T02:24:07.076Z,48.99
2024-03-27T02:26:42.193Z,49.15
2024-03-27T02:29:14.119Z,49.32
2024-03-27T02:31:44.782Z,49.37
2024-03-27T02:34:16.340Z,49.55
2024-03-27T02:36:47.075Z,49.48
2024-03-27T02:39:18.631Z,49.60
2024-03-27T02:41:49.153Z,49.75
2024-03-27T02:44:20.910Z,49.86
2024-03-27T02:46:51.332Z,49.68
2024-03-27T02:49:23.172Z,49.60
2024-03-27T02:51:54.488Z,49.54
2024-03-27T02:54:26.206Z,49.60
2024-03-27T02:56:56.636Z,49.72
2024-03-27T02:59:28.485Z,49.94
2024-03-27T03:01:58.921Z,50.06
2024-03-27T03:04:30.571Z,50.13
2024-03-27T03:07:01.200Z,50.07
2024-03-27T03:09:33.002Z,49.95
2024-03-27T03:12:05.450Z,49.80
2024-03-27T03:14:37.195Z,49.24
2024-03-27T03:17:07.614Z,48.78
2024-03-27T03:19:39.479Z,48.44
2024-03-27T03:22:10.215Z,48.10
2024-03-27T03:24:41.877Z,47.95
2024-03-27T03:27:12.389Z,47.77
2024-03-27T03:29:44.149Z,47.71
2024-03-27T03:32:14.690Z,47.76
2024-03-27T03:34:46.548Z,47.75
2024-03-27T03:37:17.869Z,47.64
2024-03-27T03:39:49.651Z,47.53
2024-03-27T03:42:20.179Z,47.43
2024-03-27T03:44:51.929Z,47.29
2024-03-27T03:47:22.375Z,47.39
2024-03-27T03:49:54.012Z,47.34
2024-03-27T03:52:24.440Z,47.19
2024-03-27T03:54:56.623Z,47.13
2024-03-27T03:57:27.034Z,47.27
2024-03-27T03:59:58.788Z,47.32
2024-03-27T04:02:29.119Z,47.26
2024-03-27T04:05:01.474Z,47.29
2024-03-27T04:07:31.847Z,47.22
2024-03-27T04:10:04.245Z,47.17
2024-03-27T04:12:34.514Z,47.12
2024-03-27T04:15:06.863Z,47.08
2024-03-27T04:17:37.101Z,46.93
2024-03-27T04:20:15.548Z,46.72
2024-03-27T04:22:47.685Z,46.55
2024-03-27T04:25:20.981Z,46.54
2024-03-27T04:27:53.351Z,46.49
2024-03-27T04:30:23.781Z,46.42
2024-03-27T04:32:55.839Z,46.50
2024-03-27T04:35:26.266Z,46.53
2024-03-27T04:37:58.255Z,46.61
2024-03-27T04:40:28.866Z,46.64
2024-03-27T04:43:00.616Z,46.78
2024-03-27T04:45:31.680Z,46.84
2024-03-27T04:48:03.723Z,46.91
2024-03-27T04:50:35.151Z,46.99
2024-03-27T04:53:06.933Z,47.07
2024-03-27T04:55:37.763Z,47.21
2024-03-27T04:58:09.629Z,47.21
2024-03-27T05:00:40.104Z,47.24
2024-03-27T05:03:14.632Z,47.15
2024-03-27T05:05:47.870Z,47.24
2024-03-27T05:08:18.613Z,47.22
2024-03-27T05:10:50.360Z,47.20
2024-03-27T05:13:21.606Z,47.07
2024-03-27T05:15:53.169Z,47.03
2024-03-27T05:18:24.332Z,46.73
2024-03-27T05:20:56.370Z,46.66
2024-03-27T05:23:27.851Z,46.52
2024-03-27T05:25:59.479Z,46.31
2024-03-27T05:28:30.571Z,46.18
2024-03-27T05:31:02.684Z,45.96
2024-03-27T05:33:33.320Z,45.81
2024-03-27T05:36:14.066Z,45.57
2024-03-27T05:38:52.504Z,45.27
2024-03-27T05:41:23.643Z,45.01
2024-03-27T05:43:55.403Z,44.56
2024-03-27T05:46:25.925Z,44.21
2024-03-27T05:48:57.309Z,43.88
2024-03-27T05:51:29.638Z,43.38
2024-03-27T05:54:01.611Z,42.82
2024-03-27T05:56:32.145Z,42.42
2024-03-27T05:59:03.904Z,41.88
2024-03-27T06:01:34.427Z,41.26
2024-03-27T06:04:06.826Z,40.86
2024-03-27T06:06:37.379Z,40.49
2024-03-27T06:09:10.205Z,40.21
2024-03-27T06:11:40.641Z,39.49
2024-03-27T06:14:12.184Z,39.14
2024-03-27T06:16:42.918Z,38.80
2024-03-27T06:19:14.577Z,38.61
2024-03-27T06:21:44.896Z,37.53
2024-03-27T06:24:16.666Z,37.46
2024-03-27T06:26:47.218Z,36.56
2024-03-27T06:29:18.949Z,36.13
2024-03-27T06:31:49.676Z,35.93
2024-03-27T06:34:21.339Z,35.89
2024-03-27T06:36:51.753Z,35.38
2024-03-27T06:39:23.620Z,35.14
2024-03-27T06:41:54.148Z,35.73
2024-03-27T06:44:26.314Z,35.83
2024-03-27T06:46:56.953Z,35.69
2024-03-27T06:49:34.559Z,35.30
2024-03-27T06:52:06.713Z,34.88
2024-03-27T06:54:37.447Z,35.07
2024-03-27T06:57:09.208Z,34.84
2024-03-27T06:59:39.625Z,34.59
2024-03-27T07:02:11.691Z,34.05
2024-03-27T07:04:44.123Z,34.01
2024-03-27T07:07:15.957Z,33.47
2024-03-27T07:09:46.467Z,33.31
2024-03-27T07:12:17.907Z,32.79
2024-03-27T07:14:51.710Z,32.74
2024-03-27T07:17:23.464Z,32.14
2024-03-27T07:19:54.817Z,31.79
2024-03-27T07:22:26.374Z,31.43
2024-03-27T07:24:57.003Z,31.16
2024-03-27T07:27:28.557Z,31.31
2024-03-27T07:30:00.136Z,31.43
2024-03-27T07:32:31.803Z,31.18
2024-03-27T07:35:02.528Z,31.35
2024-03-27T07:37:35.177Z,31.80
2024-03-27T07:40:07.844Z,32.22
2024-03-27T07:42:39.816Z,32.60
2024-03-27T07:45:10.452Z,32.85
2024-03-27T07:47:42.005Z,33.00
2024-03-27T07:50:12.427Z,32.59
2024-03-27T07:52:44.587Z,32.48
2024-03-27T07:55:15.427Z,32.53
2024-03-27T07:57:47.508Z,32.55
2024-03-27T08:00:19.612Z,32.26
2024-03-27T08:02:52.820Z,31.73
2024-03-27T08:05:23.336Z,31.90
2024-03-27T08:07:55.136Z,31.86
2024-03-27T08:10:25.668Z,31.85
2024-03-27T08:12:57.424Z,31.84
2024-03-27T08:15:27.744Z,31.84
2024-03-27T08:17:59.611Z,31.79
2024-03-27T08:20:30.360Z,31.58
2024-03-27T08:23:02.216Z,31.69
2024-03-27T08:25:34.492Z,31.40
2024-03-27T08:28:06.738Z,31.08
2024-03-27T08:30:37.167Z,30.52
2024-03-27T08:33:08.730Z,30.22
2024-03-27T08:35:40.996Z,29.71
2024-03-27T08:38:14.711Z,29.26
2024-03-27T08:40:52.102Z,28.56
2024-03-27T08:43:24.147Z,27.97
2024-03-27T08:45:54.879Z,27.43
2024-03-27T08:48:26.543Z,26.87
2024-03-27T08:50:57.071Z,25.97
2024-03-27T08:53:28.732Z,25.69
2024-03-27T08:55:59.147Z,25.43
2024-03-27T08:58:31.104Z,24.71
2024-03-27T09:01:01.533Z,24.42
2024-03-27T09:03:33.606Z,24.50
2024-03-27T09:06:04.391Z,24.58
2024-03-27T09:08:36.706Z,24.64
2024-03-27T09:11:10.941Z,24.24
2024-03-27T09:13:42.686Z,24.02
2024-03-27T09:16:13.312Z,23.55
2024-03-27T09:18:45.595Z,23.46
2024-03-27T09:21:16.313Z,23.31
2024-03-27T09:23:48.894Z,23.30
2024-03-27T09:26:19.827Z,23.08
2024-03-27T09:28:51.795Z,22.53
2024-03-27T09:31:22.327Z,22.15
2024-03-27T09:33:53.877Z,22.25
2024-03-27T09:36:24.814Z,22.10
2024-03-27T09:38:56.366Z,21.52
2024-03-27T09:41:27.142Z,21.04
2024-03-27T09:43:58.968Z,20.53
2024-03-27T09:46:29.385Z,20.45
2024-03-27T09:49:01.060Z,20.52
2024-03-27T09:51:32.161Z,20.28
2024-03-27T09:54:07.018Z,20.43
2024-03-27T09:56:39.584Z,20.31
2024-03-27T09:59:11.956Z,20.23
2024-03-27T10:01:49.536Z,20.19
2024-03-27T10:04:21.622Z,19.85
2024-03-27T10:06:53.127Z,19.66
2024-03-27T10:09:25.043Z,19.67
2024-03-27T10:11:55.766Z,19.81
2024-03-27T10:14:27.546Z,19.88
2024-03-27T10:16:57.951Z,19.52
2024-03-27T10:19:30.342Z,19.26
2024-03-27T10:22:01.216Z,19.45
2024-03-27T10:24:32.930Z,19.32
2024-03-27T10:27:03.862Z,19.28
2024-03-27T10:29:36.049Z,19.21
2024-03-27T10:32:06.548Z,19.34
2024-03-27T10:34:39.764Z,19.40
2024-03-27T10:37:13.450Z,19.05
2024-03-27T10:39:48.503Z,18.99
2024-03-27T10:42:23.416Z,18.93
2024-03-27T10:44:57.593Z,19.01
2024-03-27T10:47:35.263Z,19.12
2024-03-27T10:50:07.717Z,19.08
2024-03-27T10:52:38.427Z,19.35
2024-03-27T10:55:12.658Z,19.32
2024-03-27T10:57:43.413Z,19.22
2024-03-27T11:00:15.649Z,18.45
2024-03-27T11:02:53.041Z,18.37
2024-03-27T11:05:28.693Z,18.35
2024-03-27T11:08:00.465Z,18.38
2024-03-27T11:10:30.978Z,18.26
2024-03-27T11:13:03.242Z,18.06
2024-03-27T11:15:34.181Z,17.52
2024-03-27T11:18:16.850Z,17.21
2024-03-27T11:20:54.698Z,17.07
2024-03-27T11:23:47.277Z,17.23
2024-03-27T11:26:30.016Z,18.07
2024-03-27T11:29:01.720Z,18.77
2024-03-27T11:31:40.800Z,19.33
2024-03-27T11:34:12.605Z,19.30
2024-03-27T11:36:43.139Z,18.97
2024-03-27T11:39:17.962Z,18.68
2024-03-27T11:41:51.543Z,18.67
2024-03-27T11:44:21.992Z,19.12
2024-03-27T11:46:54.539Z,18.79
2024-03-27T11:49:24.903Z,18.60
2024-03-27T11:51:56.653Z,18.93
2024-03-27T11:54:29.942Z,19.27
2024-03-27T11:57:02.209Z,19.30
2024-03-27T11:59:32.936Z,18.88
2024-03-27T12:02:05.006Z,18.66
2024-03-27T12:04:35.224Z,18.67
2024-03-27T12:07:07.102Z,18.82
2024-03-27T12:09:38.645Z,19.13
2024-03-27T12:12:10.497Z,19.47
2024-03-27T12:14:40.739Z,19.37
2024-03-27T12:17:15.347Z,18.88
2024-03-27T12:19:54.852Z,18.46
2024-03-27T12:22:27.160Z,18.09
2024-03-27T12:24:57.485Z,18.09
2024-03-27T12:27:32.823Z,18.11
2024-03-27T12:30:06.119Z,18.46
2024-03-27T12:32:36.645Z,18.76
2024-03-27T12:35:09.025Z,19.12
2024-03-27T12:37:39.544Z,19.18
2024-03-27T12:40:12.028Z,19.10
2024-03-27T12:42:43.075Z,18.54
2024-03-27T12:45:14.936Z,17.86
2024-03-27T12:47:45.584Z,17.64
2024-03-27T12:50:17.220Z,17.54
2024-03-27T12:52:47.539Z,17.33
2024-03-27T12:55:19.508Z,17.26
2024-03-27T12:57:51.836Z,16.50
2024-03-27T13:00:24.067Z,16.35
2024-03-27T13:02:54.380Z,16.60
2024-03-27T13:05:26.626Z,17.00
2024-03-27T13:07:57.155Z,17.51
2024-03-27T13:10:30.767Z,17.73
2024-03-27T13:13:01.082Z,17.92
2024-03-27T13:15:33.568Z,18.21
2024-03-27T13:18:04.606Z,18.60
2024-03-27T13:20:36.327Z,18.58
2024-03-27T13:23:07.210Z,18.48
2024-03-27T13:25:38.945Z,18.71
2024-03-27T13:28:09.795Z,19.50
2024-03-27T13:30:41.649Z,20.36
2024-03-27T13:33:12.140Z,20.22
2024-03-27T13:35:44.043Z,19.96
2024-03-27T13:38:16.725Z,19.37
2024-03-27T13:40:48.780Z,18.83
2024-03-27T13:43:19.913Z,19.10
2024-03-27T13:45:52.009Z,19.19
2024-03-27T13:48:22.928Z,19.03
2024-03-27T13:50:54.790Z,19.24
2024-03-27T13:53:25.315Z,19.77
2024-03-27T13:55:57.385Z,21.43
2024-03-27T13:58:28.009Z,23.77
2024-03-27T14:00:59.779Z,25.49
2024-03-27T14:03:30.295Z,26.41
2024-03-27T14:06:02.178Z,25.79
2024-03-27T14:08:32.786Z,24.53
2024-03-27T14:11:10.072Z,23.02
2024-03-27T14:13:41.940Z,21.95
2024-03-27T14:16:12.167Z,21.55
2024-03-27T14:18:44.115Z,21.20
2024-03-27T14:21:14.447Z,21.47
2024-03-27T14:23:46.726Z,22.06
2024-03-27T14:26:17.887Z,22.34
2024-03-27T14:28:49.720Z,22.74
2024-03-27T14:31:19.938Z,23.07
2024-03-27T14:33:54.723Z,23.14
2024-03-27T14:36:27.961Z,22.80
2024-03-27T14:38:58.799Z,22.50
2024-03-27T14:41:30.876Z,22.26
2024-03-27T14:44:01.432Z,22.26
2024-03-27T14:46:33.460Z,22.05
2024-03-27T14:49:04.090Z,21.97
2024-03-27T14:51:36.043Z,21.83
2024-03-27T14:54:06.579Z,21.61
2024-03-27T14:56:39.156Z,22.17
2024-03-27T14:59:10.062Z,22.34
2024-03-27T15:01:41.850Z,22.30
2024-03-27T15:04:12.691Z,22.55
2024-03-27T15:06:44.554Z,22.82
2024-03-27T15:09:17.821Z,22.96
2024-03-27T15:11:49.902Z,23.19
2024-03-27T15:14:20.538Z,23.38
2024-03-27T15:16:52.295Z,23.43
2024-03-27T15:19:22.829Z,23.83
2024-03-27T15:21:54.603Z,24.24
2024-03-27T15:24:25.214Z,24.54
2024-03-27T15:26:57.180Z,25.03
2024-03-27T15:29:27.502Z,25.18
2024-03-27T15:31:59.946Z,25.46
2024-03-27T15:34:30.199Z,25.68
2024-03-27T15:37:03.631Z,26.00
2024-03-27T15:39:35.358Z,26.44
2024-03-27T15:42:07.420Z,27.04
2024-03-27T15:44:37.837Z,27.49
2024-03-27T15:47:09.697Z,27.74
2024-03-27T15:49:40.030Z,28.08
2024-03-27T15:52:11.983Z,28.40
2024-03-27T15:54:42.216Z,29.06
2024-03-27T15:57:14.185Z,29.62
2024-03-27T15:59:44.708Z,29.94
2024-03-27T16:02:16.560Z,30.48
2024-03-27T16:04:50.167Z,31.75
2024-03-27T16:07:25.611Z,33.25
2024-03-27T16:09:56.096Z,34.75
2024-03-27T16:12:27.781Z,35.96
2024-03-27T16:14:58.426Z,36.57
2024-03-27T16:17:30.512Z,37.10
2024-03-27T16:20:01.121Z,37.52
2024-03-27T16:22:32.881Z,37.84
2024-03-27T16:25:04.399Z,38.27
2024-03-27T16:27:36.544Z,38.69
2024-03-27T16:30:08.109Z,39.41
2024-03-27T16:32:39.812Z,39.95
2024-03-27T16:35:10.428Z,40.61
2024-03-27T16:37:41.986Z,41.26
2024-03-27T16:40:12.616Z,41.63
2024-03-27T16:42:44.378Z,42.32
2024-03-27T16:45:15.752Z,42.88
2024-03-27T16:47:47.378Z,43.29
2024-03-27T16:50:18.009Z,43.76
2024-03-27T16:52:49.461Z,44.23
2024-03-27T16:55:20.189Z,44.70
2024-03-27T16:57:51.749Z,45.02
2024-03-27T17:00:22.279Z,45.41
2024-03-27T17:02:53.930Z,45.90
2024-03-27T17:05:24.559Z,46.20
2024-03-27T17:07:56.118Z,46.39
2024-03-27T17:10:27.066Z,46.72
2024-03-27T17:12:58.714Z,46.96
2024-03-27T17:15:29.447Z,47.03
2024-03-27T17:18:01.044Z,47.23
2024-03-27T17:20:34.773Z,47.52
2024-03-27T17:23:07.172Z,47.73
2024-03-27T17:25:37.907Z,47.67
2024-03-27T17:28:09.659Z,48.04
2024-03-27T17:30:40.093Z,48.01
2024-03-27T17:33:11.848Z,48.31
2024-03-27T17:35:51.806Z,48.74
2024-03-27T17:38:23.666Z,48.98
2024-03-27T17:40:54.292Z,49.00
2024-03-27T17:43:26.161Z,48.94
2024-03-27T17:46:04.999Z,49.07
2024-03-27T17:48:36.729Z,49.15
2024-03-27T17:51:07.051Z,49.31
2024-03-27T17:53:38.916Z,49.34
2024-03-27T17:56:09.241Z,49.42
2024-03-27T17:58:41.207Z,49.52
2024-03-27T18:01:12.443Z,49.58
2024-03-27T18:03:45.953Z,49.49
2024-03-27T18:06:16.990Z,49.76
2024-03-27T18:08:48.844Z,49.83
2024-03-27T18:11:19.074Z,49.91
2024-03-27T18:13:51.033Z,50.08
2024-03-27T18:16:23.039Z,50.35
2024-03-27T18:18:55.060Z,50.34
2024-03-27T18:21:25.589Z,50.50
2024-03-27T18:23:57.242Z,50.54
2024-03-27T18:26:27.665Z,50.58
2024-03-27T18:28:59.429Z,50.78
2024-03-27T18:31:33.123Z,50.77
2024-03-27T18:34:06.335Z,50.78
2024-03-27T18:36:37.236Z,51.04
2024-03-27T18:39:08.818Z,51.16
2024-03-27T18:41:39.553Z,51.08
2024-03-27T18:44:11.196Z,51.17
2024-03-27T18:46:41.929Z,51.26
2024-03-27T18:49:13.698Z,51.17
2024-03-27T18:51:44.114Z,51.34
2024-03-27T18:54:15.980Z,51.49
2024-03-27T18:56:46.401Z,51.46
2024-03-27T18:59:18.171Z,51.45
2024-03-27T19:01:48.689Z,52.01
2024-03-27T19:04:20.347Z,52.15
2024-03-27T19:06:50.986Z,52.41
2024-03-27T19:09:23.104Z,52.75
2024-03-27T19:11:54.086Z,52.58
2024-03-27T19:14:25.848Z,52.85
2024-03-27T19:16:56.366Z,53.13
2024-03-27T19:19:27.943Z,53.17
2024-03-27T19:21:58.551Z,53.50
2024-03-27T19:24:30.008Z,53.38
2024-03-27T19:27:00.898Z,53.51
2024-03-27T19:29:32.501Z,53.72
2024-03-27T19:32:05.181Z,53.92
2024-03-27T19:34:36.838Z,53.84
2024-03-27T19:37:08.206Z,54.04
2024-03-27T19:39:39.734Z,54.14
2024-03-27T19:42:10.849Z,54.19
2024-03-27T19:44:42.836Z,54.28
2024-03-27T19:47:13.461Z,54.61
2024-03-27T19:49:44.920Z,54.41
2024-03-27T19:52:26.210Z,54.59
2024-03-27T19:55:02.143Z,54.94
2024-03-27T19:57:32.756Z,54.85
2024-03-27T20:00:05.273Z,55.03
2024-03-27T20:02:38.824Z,54.92
2024-03-27T20:05:11.910Z,55.01
2024-03-27T20:07:42.786Z,55.00
2024-03-27T20:10:14.750Z,55.08
2024-03-27T20:12:45.089Z,55.02
2024-03-27T20:15:16.934Z,54.83
2024-03-27T20:17:47.385Z,54.73
2024-03-27T20:20:19.535Z,54.63
2024-03-27T20:22:49.858Z,54.65
2024-03-27T20:25:21.820Z,54.65
2024-03-27T20:27:52.143Z,54.70
2024-03-27T20:30:24.210Z,54.75
2024-03-27T20:32:54.429Z,54.78
2024-03-27T20:35:26.189Z,54.87
2024-03-27T20:37:56.527Z,55.00
2024-03-27T20:40:28.586Z,55.05
2024-03-27T20:43:01.184Z,55.33
2024-03-27T20:45:39.226Z,55.34
2024-03-27T20:48:11.018Z,55.44
2024-03-27T20:50:42.765Z,55.71
2024-03-27T20:53:14.639Z,55.78
2024-03-27T20:55:45.475Z,55.89
2024-03-27T20:58:17.875Z,56.17
2024-03-27T21:00:50.660Z,56.38
2024-03-27T21:03:22.274Z,56.59
2024-03-27T21:05:53.013Z,56.76
2024-03-27T21:08:24.869Z,56.94
2024-03-27T21:10:55.290Z,57.18
2024-03-27T21:13:27.357Z,57.28
2024-03-27T21:15:57.684Z,57.56
2024-03-27T21:18:29.646Z,57.96
2024-03-27T21:21:00.182Z,58.42
2024-03-27T21:23:32.048Z,58.91
2024-03-27T21:26:02.505Z,58.96
2024-03-27T21:28:34.534Z,59.30
2024-03-27T21:31:05.475Z,59.61
2024-03-27T21:33:37.436Z,59.80
2024-03-27T21:36:07.957Z,59.97
2024-03-27T21:38:39.720Z,60.14
2024-03-27T21:41:10.041Z,60.31
2024-03-27T21:43:42.013Z,60.59
2024-03-27T21:46:12.249Z,60.91
2024-03-27T21:48:44.085Z,61.16
2024-03-27T21:51:14.719Z,61.20
2024-03-27T21:53:46.265Z,61.50
2024-03-27T21:56:16.485Z,61.43
2024-03-27T21:58:48.773Z,61.34
2024-03-27T22:01:18.981Z,61.28
2024-03-27T22:03:50.843Z,61.53
2024-03-27T22:06:21.075Z,61.66
2024-03-27T22:08:52.823Z,62.00
2024-03-27T22:11:23.454Z,62.28
2024-03-27T22:13:55.624Z,62.49
2024-03-27T22:16:26.142Z,62.78
2024-03-27T22:18:57.907Z,63.18
2024-03-27T22:21:28.742Z,63.41
2024-03-27T22:24:00.716Z,63.54
2024-03-27T22:26:31.124Z,63.65
2024-03-27T22:29:02.793Z,63.81
2024-03-27T22:31:33.320Z,64.38
2024-03-27T22:34:05.254Z,64.18
2024-03-27T22:36:35.501Z,64.51
2024-03-27T22:39:07.371Z,64.92
2024-03-27T22:41:38.060Z,65.05
2024-03-27T22:44:09.766Z,65.41
2024-03-27T22:46:40.271Z,65.08
2024-03-27T22:49:12.168Z,65.19
2024-03-27T22:51:42.576Z,64.96
2024-03-27T22:54:15.138Z,64.76
2024-03-27T22:56:47.967Z,64.99
2024-03-27T22:59:22.164Z,64.88
2024-03-27T23:01:52.457Z,64.84
2024-03-27T23:04:24.433Z,64.90
2024-03-27T23:06:54.845Z,64.84
2024-03-27T23:09:26.501Z,64.74
2024-03-27T23:11:56.942Z,64.79
2024-03-27T23:14:28.697Z,64.65
2024-03-27T23:16:59.222Z,64.73
2024-03-27T23:19:30.989Z,64.80
2024-03-27T23:22:01.426Z,64.94
2024-03-27T23:24:33.159Z,64.93
2024-03-27T23:27:04.194Z,64.76
2024-03-27T23:29:35.750Z,64.68
2024-03-27T23:32:07.122Z,64.68
2024-03-27T23:34:38.654Z,64.83
2024-03-27T23:37:09.556Z,64.77
2024-03-27T23:39:41.158Z,65.03
2024-03-27T23:42:11.674Z,65.11
2024-03-27T23:44:43.326Z,65.46
2024-03-27T23:47:14.064Z,65.44
2024-03-27T23:49:45.724Z,65.38
2024-03-27T23:52:17.112Z,65.08
2024-03-27T23:54:48.737Z,65.00
2024-03-27T23:57:19.354Z,64.89
2024-03-27T23:59:51.007Z,64.75
